Airfield :
LOGIN :

Register | Disclaimer

   EN    FR    IT 

 










Legend :    VFR   Marginal VFR   IFR   Intensive IFR   Very Intensive IFR
Visi :
Ceiling :
>= 8 km
>= 3000ft
5 to 8 km
1000 to 3000 ft
1500m to 5 km
500 to 1000 ft
800 to 1500m
200 to 500 ft
< 800m
< 200 ft
Symbols :   Thunderstorms  Fog  Heavy snow  Heavy precipitations  Wind > 20 kt
SIGMETs :     Misc.  Thunderstorms  Icing  Turbulence  Mountain Waves  Volcanic Ashes







- Airport Elevation : 277 ft
- IATA code : JER
- Download approach charts


EGJJ - Jersey

CURRENT METAR :
  • 211250Z 14017KT CAVOK 24/16 Q1008

EXPIRED METARs :
  • 211220Z 14016KT CAVOK 23/16 Q1008
  • 211150Z 13018KT CAVOK 22/15 Q1008
  • 211120Z 13017KT CAVOK 22/15 Q1008
  • 211050Z 14019KT CAVOK 21/15 Q1009
  • 211020Z 13019KT CAVOK 21/14 Q1009

TAF TAF EGJJ
Valid from the 21 at 12:00 until the 21 at 21:00 UTC


211103Z 2112/2121 14014KT 9999 FEW030
PROB30
TEMPO 2115/2119 9000 SHRA SCT045CB
ATIS : +44 1534 498 073
No reported NOTAMs for that airfield.



MET'MAP, your aeronautical weather chart ! - Copyright ORBIFLY December 2007 - Disclaimer

ORBIFLY MET'MAP TEAM :

Programming & Development : Alexandra Zaïnal
Concept & Development : Baudouin d'Aumeries
Co-Development & Prog : Marc-Olivier Méhu
Technical & hardware support : Manuel Goepfert

Contact : metmap@orbifly.com




SOURCES & CREDITS :

   NOAA